MMLMMMCN

Guest
Details From MMLM - VALLE DEL FUERTE INTL
To MMCN - CIUDAD OBREGON INTL
Flight Number -
Tags generated
Created
Modified
Stats Distance 112 nm / 207 km
Max Altitude 4,000 ft / 1,219 m
Waypoints 4
Social Downloads 0
Likes 0
Share VATSIM

Download

Looking for another format? Having issues loading an existing format? Contact us
Advertisement - Login to hide

Notes

Basic altitude profile: - Ascent Rate: 2500ft/min - Ascent Speed: 250kts - Cruise Altitude: 35000ft - Cruise Speed: 420kts - Descent Rate: 1500ft/min - Descent Speed: 250kts Options: - Use NATs: no - Use PACOTS: no - Use low airways: yes - Use high airways: no

Route

MMLM LMM V41 CEN MMCN

ID Type Via Altitude Latitude Longitude Leg Dist Tot Dist Heading (true) Name
O MMLM APT - 0 ft / 0 m 25.68518˚ -109.08070˚ - 0 nm - VALLE DEL FUERTE INTL
LMM VOR - 100 ft / 30 m 25.68261˚ -109.07158˚ 0 nm 0 nm 107° / 107° MOCHIS VOR-DME
CEN VOR V41 (AWY-LO) 4,000 ft / 1,219 m 27.39476˚ -109.83728˚ 110 nm 111 nm 338° / 338° OBREGON VOR-DME
O MMCN APT - 0 ft / 0 m 27.39262˚ -109.83310˚ 0 nm 111 nm 120° / 120° CIUDAD OBREGON INTL

Altitude Profile

Advertisement - Login to hide

MMLM

Details ICAO MMLM (LMM)
Name VALLE DEL FUERTE INTL
Region Mexico
Timezone America/Mazatlan (UTC-7.0)
Stats Elevation 16 ft / 5 m (AMSL)
Location 25.685181° -109.080702°
Runways 1
Magnetic Variation 8.414° E

METAR

MMLM 131356Z 26005KT 8SM FEW030 BKN120 OVC220 17/14 A2999 RMK 8/127 RTS

Decode

TAF

TAF MMLM 130516Z 1306/1406 30008KT P6SM SCT100 OVC250 FM131600 30006KT P6SM BKN080 OVC250 PROB40 1316/1320 5SM RA FM140200 30005KT P6SM SCT100 OVC250

Decode

Departure Runways

ID Width Length Bearing (true) Bearing (mag) Surface Threshold Offset Overrun Length
09 148 ft / 45 m 6,533 ft / 1,991 m 99.91° 91.50° Asphalt 0 ft / 0 m 200 ft / 61 m
27 148 ft / 45 m 6,533 ft / 1,991 m 279.92° 271.51° Asphalt 0 ft / 0 m 200 ft / 61 m

MMCN

Details ICAO MMCN (CEN)
Name CIUDAD OBREGON INTL
Region Mexico
Timezone America/Hermosillo (UTC-7.0)
Stats Elevation 205 ft / 62 m (AMSL)
Location 27.392625° -109.833097°
Runways 1
Magnetic Variation 8.828° E

METAR

MMCN 131446Z 12003KT 10SM SKC 15/11 A2995 RMK SLP142 ISOL CI

Decode

TAF

TAF MMCN 130516Z 1306/1406 33005KT P6SM SCT250 FM131800 30010KT P6SM SCT030 SCT250 FM140200 30005KT P6SM BKN250

Decode

Destination Runways

ID Width Length Bearing (true) Bearing (mag) Surface Threshold Offset Overrun Length
13 148 ft / 45 m 7,587 ft / 2,313 m 137.17° 128.34° Asphalt 0 ft / 0 m 180 ft / 55 m
31 148 ft / 45 m 7,587 ft / 2,313 m 317.18° 308.35° Asphalt 0 ft / 0 m 180 ft / 55 m

Popular Alternatives